createdAt,value
2019-06-10T00:00:22.127Z,45.73
2019-06-10T00:02:50.850Z,45.36
2019-06-10T00:05:21.454Z,45.59
2019-06-10T00:07:51.626Z,45.66
2019-06-10T00:10:21.471Z,45.35
2019-06-10T00:12:51.419Z,45.75
2019-06-10T00:15:21.338Z,46.21
2019-06-10T00:18:01.192Z,46.00
2019-06-10T00:20:21.607Z,47.50
2019-06-10T00:22:51.491Z,47.46
2019-06-10T00:25:21.052Z,47.63
2019-06-10T00:27:51.153Z,47.88
2019-06-10T00:30:20.836Z,48.21
2019-06-10T00:32:51.574Z,48.05
2019-06-10T00:35:21.094Z,48.17
2019-06-10T00:37:51.210Z,48.13
2019-06-10T00:40:21.493Z,48.33
2019-06-10T00:42:50.722Z,49.00
2019-06-10T00:45:21.660Z,49.50
2019-06-10T00:48:04.465Z,48.78
2019-06-10T00:50:21.801Z,49.06
2019-06-10T00:52:51.725Z,48.97
2019-06-10T00:55:21.175Z,48.84
2019-06-10T00:57:50.958Z,49.09
2019-06-10T01:00:25.587Z,49.30
2019-06-10T01:02:51.782Z,49.40
2019-06-10T01:05:20.715Z,49.37
2019-06-10T01:07:50.857Z,49.07
2019-06-10T01:10:21.092Z,49.11
2019-06-10T01:12:51.300Z,49.23
2019-06-10T01:15:21.859Z,49.59
2019-06-10T01:17:51.108Z,50.17
2019-06-10T01:20:21.080Z,49.77
2019-06-10T01:22:51.648Z,50.24
2019-06-10T01:25:21.643Z,49.76
2019-06-10T01:27:51.517Z,50.03
2019-06-10T01:30:24.523Z,50.47
2019-06-10T01:32:50.717Z,49.67
2019-06-10T01:35:21.070Z,49.82
2019-06-10T01:37:51.878Z,49.61
2019-06-10T01:40:20.882Z,49.25
2019-06-10T01:42:50.646Z,49.22
2019-06-10T01:45:21.236Z,49.04
2019-06-10T01:47:51.101Z,48.91
2019-06-10T01:50:21.866Z,49.90
2019-06-10T01:52:51.617Z,49.87
2019-06-10T01:55:21.891Z,49.45
2019-06-10T01:57:51.834Z,48.89
2019-06-10T02:00:25.982Z,48.46
2019-06-10T02:02:53.106Z,48.16
2019-06-10T02:05:22.911Z,48.17
2019-06-10T02:07:51.725Z,48.39
2019-06-10T02:10:22.821Z,48.42
2019-06-10T02:12:50.911Z,48.11
2019-06-10T02:15:22.463Z,48.08
2019-06-10T02:17:51.013Z,48.29
2019-06-10T02:20:22.596Z,47.99
2019-06-10T02:22:51.535Z,47.66
2019-06-10T02:25:21.710Z,47.57
2019-06-10T02:27:50.868Z,47.31
2019-06-10T02:30:36.502Z,47.20
2019-06-10T02:32:52.341Z,47.12
2019-06-10T02:35:33.214Z,47.09
2019-06-10T02:37:53.720Z,47.34
2019-06-10T02:40:29.289Z,46.94
2019-06-10T02:42:53.949Z,47.32
2019-06-10T02:45:32.020Z,47.60
2019-06-10T02:47:53.450Z,51.85
2019-06-10T02:50:32.330Z,55.42
2019-06-10T02:52:55.338Z,55.48
2019-06-10T02:55:30.478Z,63.60
2019-06-10T02:57:54.012Z,59.30
2019-06-10T03:00:36.156Z,58.75
2019-06-10T03:02:53.135Z,59.66
2019-06-10T03:05:26.980Z,61.50
2019-06-10T03:07:53.312Z,60.93
2019-06-10T03:10:29.519Z,61.13
2019-06-10T03:12:52.801Z,62.93
2019-06-10T03:15:24.499Z,62.79
2019-06-10T03:17:52.181Z,64.46
2019-06-10T03:20:23.087Z,62.85
2019-06-10T03:22:52.488Z,65.66
2019-06-10T03:25:23.311Z,63.64
2019-06-10T03:27:52.529Z,64.56
2019-06-10T03:30:35.846Z,64.73
2019-06-10T03:32:55.350Z,66.00
2019-06-10T03:35:23.838Z,67.07
2019-06-10T03:37:52.756Z,66.61
2019-06-10T03:40:24.599Z,67.29
2019-06-10T03:42:52.042Z,69.27
2019-06-10T03:45:23.385Z,70.49
2019-06-10T03:47:52.744Z,71.77
2019-06-10T03:50:23.976Z,72.99
2019-06-10T03:52:52.470Z,74.76
2019-06-10T03:55:24.864Z,71.15
2019-06-10T03:57:52.616Z,72.06
2019-06-10T04:00:23.699Z,72.08
2019-06-10T04:02:53.224Z,75.67
2019-06-10T04:05:23.863Z,74.02
2019-06-10T04:07:52.670Z,72.24
2019-06-10T04:10:23.986Z,70.37
2019-06-10T04:12:52.344Z,71.94
2019-06-10T04:15:24.807Z,70.99
2019-06-10T04:17:53.076Z,71.34
2019-06-10T04:20:24.745Z,71.78
2019-06-10T04:22:52.293Z,70.44
2019-06-10T04:25:24.658Z,74.23
2019-06-10T04:27:52.423Z,73.52
2019-06-10T04:30:24.254Z,69.94
2019-06-10T04:32:52.937Z,70.42
2019-06-10T04:35:23.362Z,69.87
2019-06-10T04:37:52.083Z,74.28
2019-06-10T04:40:23.190Z,73.53
2019-06-10T04:42:52.511Z,73.69
2019-06-10T04:45:23.180Z,71.78
2019-06-10T04:47:52.461Z,72.68
2019-06-10T04:50:32.607Z,72.64
2019-06-10T04:52:52.880Z,73.36
2019-06-10T04:55:23.550Z,72.54
2019-06-10T04:57:52.197Z,75.95
2019-06-10T05:00:23.520Z,73.52
2019-06-10T05:02:52.236Z,73.91
2019-06-10T05:05:23.674Z,75.88
2019-06-10T05:07:52.040Z,75.55
2019-06-10T05:10:21.676Z,73.47
2019-06-10T05:12:52.565Z,72.44
2019-06-10T05:15:24.291Z,76.57
2019-06-10T05:17:52.702Z,80.17
2019-06-10T05:20:28.305Z,77.62
2019-06-10T05:22:52.818Z,76.08
2019-06-10T05:25:22.769Z,77.70
2019-06-10T05:27:52.248Z,76.60
2019-06-10T05:30:22.111Z,80.19
2019-06-10T05:32:52.384Z,80.44
2019-06-10T05:35:23.265Z,77.26
2019-06-10T05:37:52.757Z,75.77
2019-06-10T05:40:23.105Z,76.24
2019-06-10T05:42:52.873Z,76.86
2019-06-10T05:45:24.466Z,75.60
2019-06-10T05:47:53.074Z,76.91
2019-06-10T05:50:22.527Z,77.08
2019-06-10T05:52:52.197Z,77.43
2019-06-10T05:55:22.850Z,81.25
2019-06-10T05:57:53.146Z,78.62
2019-06-10T06:00:23.361Z,78.05
2019-06-10T06:02:52.290Z,79.88
2019-06-10T06:05:22.205Z,79.05
2019-06-10T06:08:04.085Z,77.36
2019-06-10T06:10:22.301Z,77.64
2019-06-10T06:12:52.645Z,79.54
2019-06-10T06:15:22.123Z,77.33
2019-06-10T06:18:04.019Z,78.11
2019-06-10T06:20:23.495Z,77.66
2019-06-10T06:22:52.394Z,76.64
2019-06-10T06:25:24.052Z,76.99
2019-06-10T06:27:52.488Z,76.10
2019-06-10T06:30:22.683Z,77.26
2019-06-10T06:32:53.260Z,76.21
2019-06-10T06:35:22.732Z,76.02
2019-06-10T06:37:53.946Z,75.73
2019-06-10T06:40:23.117Z,76.83
2019-06-10T06:42:52.557Z,75.82
2019-06-10T06:45:22.239Z,75.60
2019-06-10T06:47:52.802Z,75.85
2019-06-10T06:50:25.374Z,75.12
2019-06-10T06:53:18.831Z,76.07
2019-06-10T06:55:23.381Z,75.27
2019-06-10T06:57:52.839Z,75.35
2019-06-10T07:00:42.694Z,75.09
2019-06-10T07:02:54.974Z,74.22
2019-06-10T07:05:23.481Z,74.75
2019-06-10T07:07:52.783Z,75.26
2019-06-10T07:10:22.827Z,75.77
2019-06-10T07:12:52.712Z,74.72
2019-06-10T07:15:24.235Z,74.11
2019-06-10T07:17:52.797Z,73.33
2019-06-10T07:20:23.019Z,73.29
2019-06-10T07:22:53.340Z,72.54
2019-06-10T07:25:22.986Z,72.41
2019-06-10T07:27:52.712Z,71.57
2019-06-10T07:30:22.975Z,70.93
2019-06-10T07:32:52.813Z,70.98
2019-06-10T07:35:22.164Z,69.96
2019-06-10T07:37:52.342Z,69.72
2019-06-10T07:40:22.274Z,69.31
2019-06-10T07:42:52.932Z,68.75
2019-06-10T07:45:22.130Z,69.25
2019-06-10T07:47:52.288Z,68.82
2019-06-10T07:50:22.705Z,69.47
2019-06-10T07:52:52.925Z,68.50
2019-06-10T07:55:22.180Z,69.79
2019-06-10T07:57:52.928Z,68.62
2019-06-10T08:00:22.746Z,68.42
2019-06-10T08:02:52.987Z,68.03
2019-06-10T08:05:23.537Z,68.14
2019-06-10T08:07:54.582Z,68.28
2019-06-10T08:10:23.307Z,69.28
2019-06-10T08:12:52.438Z,68.16
2019-06-10T08:15:23.006Z,68.34
2019-06-10T08:17:53.071Z,68.17
2019-06-10T08:20:42.210Z,68.65
2019-06-10T08:23:09.907Z,67.94
2019-06-10T08:25:38.519Z,68.15
2019-06-10T08:28:07.012Z,67.66
2019-06-10T08:30:35.620Z,66.96
2019-06-10T08:33:04.701Z,66.56
2019-06-10T08:35:44.130Z,66.36
2019-06-10T08:38:03.452Z,66.18
2019-06-10T08:40:32.575Z,65.57
2019-06-10T08:43:04.048Z,65.32
2019-06-10T08:45:33.395Z,65.66
2019-06-10T08:48:02.692Z,65.27
2019-06-10T08:50:33.673Z,65.16
2019-06-10T08:53:13.722Z,64.53
2019-06-10T08:55:33.478Z,64.25
2019-06-10T08:58:03.008Z,64.02
2019-06-10T09:00:33.730Z,64.29
2019-06-10T09:03:04.108Z,64.04
2019-06-10T09:05:32.622Z,63.86
2019-06-10T09:08:02.879Z,63.40
2019-06-10T09:10:33.773Z,63.52
2019-06-10T09:13:02.771Z,62.86
2019-06-10T09:15:32.494Z,62.28
2019-06-10T09:18:02.646Z,63.00
2019-06-10T09:20:33.181Z,62.74
2019-06-10T09:23:18.257Z,62.48
2019-06-10T09:25:33.348Z,62.26
2019-06-10T09:28:02.485Z,62.30
2019-06-10T09:30:33.403Z,61.79
2019-06-10T09:33:04.169Z,60.83
2019-06-10T09:35:32.350Z,60.78
2019-06-10T09:38:03.512Z,59.46
2019-06-10T09:41:00.935Z,59.51
2019-06-10T09:43:24.361Z,59.32
2019-06-10T09:45:56.314Z,59.09
2019-06-10T09:48:24.290Z,56.04
2019-06-10T09:50:57.821Z,55.50
2019-06-10T09:53:32.748Z,55.36
2019-06-10T09:55:55.530Z,55.62
2019-06-10T09:58:24.248Z,55.31
2019-06-10T10:00:58.405Z,51.43
2019-06-10T10:03:27.460Z,51.43
2019-06-10T10:06:09.821Z,50.13
2019-06-10T10:08:28.907Z,51.15
2019-06-10T10:10:58.999Z,47.98
2019-06-10T10:13:27.768Z,49.22
2019-06-10T10:15:56.261Z,48.70
2019-06-10T10:18:24.808Z,47.88
2019-06-10T10:20:58.451Z,47.20
2019-06-10T10:23:23.516Z,46.60
2019-06-10T10:25:56.360Z,46.49
2019-06-10T10:28:25.439Z,45.52
2019-06-10T10:30:57.201Z,46.78
2019-06-10T10:33:25.382Z,45.85
2019-06-10T10:35:53.040Z,46.37
2019-06-10T10:38:23.061Z,47.27
2019-06-10T10:40:57.911Z,46.32
2019-06-10T10:43:28.416Z,46.15
2019-06-10T10:45:59.207Z,46.14
2019-06-10T10:48:22.684Z,46.89
2019-06-10T10:51:13.156Z,46.80
2019-06-10T10:53:40.878Z,46.45
2019-06-10T10:56:09.550Z,47.88
2019-06-10T10:58:38.069Z,47.91
2019-06-10T11:01:06.571Z,48.83
2019-06-10T11:03:35.038Z,49.31
2019-06-10T11:06:03.518Z,48.76
2019-06-10T11:08:33.295Z,49.76
2019-06-10T11:11:05.134Z,49.76
2019-06-10T11:13:36.484Z,50.14
2019-06-10T11:16:05.961Z,50.46
2019-06-10T11:18:34.603Z,51.13
2019-06-10T11:21:05.078Z,51.51
2019-06-10T11:23:34.454Z,51.17
2019-06-10T11:26:03.331Z,51.27
2019-06-10T11:28:32.312Z,51.28
2019-06-10T11:31:03.242Z,51.57
2019-06-10T11:33:32.863Z,51.59
2019-06-10T11:36:02.926Z,51.93
2019-06-10T11:38:34.043Z,52.20
2019-06-10T11:41:02.822Z,52.44
2019-06-10T11:43:33.145Z,52.96
2019-06-10T11:46:06.876Z,52.99
2019-06-10T11:48:32.820Z,52.93
2019-06-10T11:51:04.297Z,53.03
2019-06-10T11:53:34.162Z,52.74
2019-06-10T11:56:02.497Z,53.42
2019-06-10T11:58:33.354Z,52.84
2019-06-10T12:01:03.881Z,52.70
2019-06-10T12:03:31.483Z,52.71
2019-06-10T12:06:01.971Z,52.93
2019-06-10T12:08:32.716Z,52.74
2019-06-10T12:11:02.390Z,53.20
2019-06-10T12:13:33.859Z,52.68
2019-06-10T12:18:33.111Z,52.79
2019-06-10T12:21:03.682Z,52.81
2019-06-10T12:23:33.613Z,52.82
2019-06-10T12:26:04.852Z,52.78
2019-06-10T12:28:32.616Z,52.75
2019-06-10T12:31:06.439Z,53.00
2019-06-10T12:33:33.666Z,53.26
2019-06-10T12:36:06.143Z,52.80
2019-06-10T12:38:32.795Z,52.72
2019-06-10T12:41:07.913Z,52.69
2019-06-10T12:43:32.660Z,52.68
2019-06-10T12:46:02.032Z,52.91
2019-06-10T12:48:34.052Z,52.12
2019-06-10T12:51:07.633Z,52.50
2019-06-10T12:53:32.676Z,52.45
2019-06-10T12:56:07.301Z,53.10
2019-06-10T12:58:33.478Z,52.47
2019-06-10T13:01:05.387Z,52.14
2019-06-10T13:03:33.803Z,51.80
2019-06-10T13:06:07.350Z,51.48
2019-06-10T13:08:36.082Z,51.74
2019-06-10T13:11:04.791Z,51.39
2019-06-10T13:13:33.305Z,51.66
2019-06-10T13:16:06.739Z,51.58
2019-06-10T13:18:32.085Z,51.25
2019-06-10T13:21:06.361Z,51.50
2019-06-10T13:23:34.572Z,51.58
2019-06-10T13:26:04.285Z,51.41
2019-06-10T13:28:32.513Z,51.66
2019-06-10T13:31:04.412Z,51.61
2019-06-10T13:33:33.203Z,51.61
2019-06-10T13:36:04.738Z,52.89
2019-06-10T13:38:33.171Z,51.92
2019-06-10T13:41:02.885Z,51.98
2019-06-10T13:43:33.894Z,51.75
2019-06-10T13:46:03.216Z,51.73
2019-06-10T13:48:32.671Z,52.00
2019-06-10T13:51:04.738Z,51.84
2019-06-10T13:53:31.363Z,51.94
2019-06-10T13:56:24.206Z,52.34
2019-06-10T13:58:30.069Z,52.34
2019-06-10T14:00:59.830Z,52.62
2019-06-10T14:03:28.443Z,52.45
2019-06-10T14:06:01.254Z,52.35
2019-06-10T14:08:27.189Z,52.59
2019-06-10T14:10:55.678Z,52.83
2019-06-10T14:13:24.153Z,52.82
2019-06-10T14:15:54.089Z,53.59
2019-06-10T14:18:23.401Z,52.76
2019-06-10T14:20:53.120Z,52.82
2019-06-10T14:23:22.314Z,52.72
2019-06-10T14:25:52.560Z,53.03
2019-06-10T14:28:38.422Z,52.87
2019-06-10T14:30:53.760Z,52.96
2019-06-10T14:33:23.314Z,53.17
2019-06-10T14:35:53.397Z,53.33
2019-06-10T14:38:22.364Z,53.61
2019-06-10T14:40:52.498Z,53.34
2019-06-10T14:43:23.238Z,53.37
2019-06-10T14:45:53.432Z,53.26
2019-06-10T14:48:23.269Z,53.10
2019-06-10T14:50:52.367Z,53.46
2019-06-10T14:53:22.956Z,53.74
2019-06-10T14:55:53.309Z,53.43
2019-06-10T14:58:23.181Z,53.21
2019-06-10T15:00:54.281Z,53.07
2019-06-10T15:03:21.677Z,53.24
2019-06-10T15:05:52.658Z,53.30
2019-06-10T15:08:22.789Z,53.44
2019-06-10T15:10:52.776Z,53.45
2019-06-10T15:13:23.440Z,53.92
2019-06-10T15:15:53.206Z,53.52
2019-06-10T15:18:23.575Z,53.60
2019-06-10T15:20:53.527Z,53.86
2019-06-10T15:23:23.559Z,53.70
2019-06-10T15:25:56.032Z,53.51
2019-06-10T15:28:23.656Z,53.28
2019-06-10T15:31:13.494Z,53.22
2019-06-10T15:33:42.986Z,53.14
2019-06-10T15:36:13.095Z,53.46
2019-06-10T15:38:43.899Z,53.61
2019-06-10T15:41:15.020Z,53.78
2019-06-10T15:43:42.469Z,53.69
2019-06-10T15:46:12.941Z,53.65
2019-06-10T15:51:28.730Z,54.24
2019-06-10T15:53:57.220Z,53.84
2019-06-10T15:56:38.726Z,53.73
2019-06-10T15:58:55.952Z,53.71
2019-06-10T16:01:27.041Z,54.00
2019-06-10T16:03:54.788Z,53.60
2019-06-10T16:06:24.369Z,53.42
2019-06-10T16:08:53.122Z,53.67
2019-06-10T16:11:26.364Z,53.86
2019-06-10T16:13:53.370Z,54.34
2019-06-10T16:16:23.062Z,54.14
2019-06-10T16:18:52.813Z,54.21
2019-06-10T16:21:23.699Z,54.45
2019-06-10T16:23:53.389Z,54.45
2019-06-10T16:26:26.301Z,54.53
2019-06-10T16:28:53.388Z,55.11
2019-06-10T16:31:25.547Z,54.80
2019-06-10T16:33:52.716Z,54.86
2019-06-10T16:36:24.408Z,54.92
2019-06-10T16:38:52.802Z,55.19
2019-06-10T16:41:26.052Z,55.63
2019-06-10T16:43:52.574Z,55.07
2019-06-10T16:46:22.344Z,55.01
2019-06-10T16:48:52.751Z,55.30
2019-06-10T16:51:21.612Z,55.08
2019-06-10T16:53:50.189Z,55.21
2019-06-10T16:56:19.684Z,55.63
2019-06-10T16:58:48.132Z,55.46
2019-06-10T17:01:18.207Z,55.30
2019-06-10T17:03:46.999Z,55.52
2019-06-10T17:06:15.616Z,55.40
2019-06-10T17:08:44.077Z,55.66
2019-06-10T17:11:12.645Z,55.70
2019-06-10T17:13:42.291Z,55.41
2019-06-10T17:16:12.777Z,55.79
2019-06-10T17:18:41.487Z,56.06
2019-06-10T17:21:09.992Z,56.12
2019-06-10T17:23:38.449Z,55.87
2019-06-10T17:26:06.965Z,56.17
2019-06-10T17:28:36.773Z,56.33
2019-06-10T17:31:05.575Z,56.28
2019-06-10T17:33:35.631Z,56.67
2019-06-10T17:36:04.347Z,56.94
2019-06-10T17:38:33.150Z,57.29
2019-06-10T17:41:02.920Z,56.93
2019-06-10T17:43:34.004Z,57.21
2019-06-10T17:46:03.364Z,57.26
2019-06-10T17:48:33.772Z,57.60
2019-06-10T17:51:02.366Z,57.69
2019-06-10T17:53:33.357Z,57.99
2019-06-10T17:56:03.213Z,58.31
2019-06-10T17:58:43.366Z,58.63
2019-06-10T18:01:02.251Z,58.58
2019-06-10T18:03:31.331Z,59.52
2019-06-10T18:06:02.593Z,59.63
2019-06-10T18:08:30.189Z,59.58
2019-06-10T18:10:58.674Z,59.99
2019-06-10T18:13:28.068Z,59.86
2019-06-10T18:15:56.600Z,59.83
2019-06-10T18:18:26.319Z,60.56
2019-06-10T18:20:54.930Z,60.49
2019-06-10T18:23:24.864Z,60.90
2019-06-10T18:25:53.475Z,60.79
2019-06-10T18:28:22.749Z,61.24
2019-06-10T18:30:53.305Z,61.62
2019-06-10T18:33:23.045Z,61.19
2019-06-10T18:35:53.219Z,61.74
2019-06-10T18:38:22.130Z,61.64
2019-06-10T18:40:53.372Z,61.85
2019-06-10T18:43:22.890Z,61.93
2019-06-10T18:45:53.190Z,62.19
2019-06-10T18:48:23.105Z,61.60
2019-06-10T18:50:53.250Z,61.86
2019-06-10T18:53:23.390Z,62.05
2019-06-10T18:55:54.773Z,62.13
2019-06-10T18:58:22.803Z,62.61
2019-06-10T19:01:00.707Z,62.13
2019-06-10T19:03:23.425Z,62.66
2019-06-10T19:05:52.854Z,62.50
2019-06-10T19:08:22.326Z,62.76
2019-06-10T19:10:53.687Z,62.73
2019-06-10T19:13:22.478Z,63.63
2019-06-10T19:15:53.153Z,63.31
2019-06-10T19:18:23.375Z,63.09
2019-06-10T19:20:52.956Z,63.90
2019-06-10T19:23:22.679Z,63.29
2019-06-10T19:25:52.546Z,63.57
2019-06-10T19:28:22.932Z,63.82
2019-06-10T19:30:53.425Z,64.68
2019-06-10T19:33:23.853Z,64.06
2019-06-10T19:35:53.207Z,64.03
2019-06-10T19:38:23.134Z,64.36
2019-06-10T19:40:52.460Z,64.27
2019-06-10T19:43:21.134Z,64.06
2019-06-10T19:45:49.690Z,64.37
2019-06-10T19:48:18.193Z,64.18
2019-06-10T19:50:50.166Z,64.70
2019-06-10T19:53:17.378Z,64.43
2019-06-10T19:55:46.135Z,64.44
2019-06-10T19:58:14.907Z,64.45
2019-06-10T20:00:50.724Z,65.29
2019-06-10T20:03:13.762Z,65.22
2019-06-10T20:05:44.921Z,65.68
2019-06-10T20:08:12.447Z,65.21
2019-06-10T20:10:42.293Z,66.63
2019-06-10T20:13:10.938Z,66.49
2019-06-10T20:15:39.546Z,66.52
2019-06-10T20:18:08.044Z,66.19
2019-06-10T20:20:38.201Z,67.43
2019-06-10T20:23:08.855Z,66.71
2019-06-10T20:25:38.356Z,66.92
2019-06-10T20:28:06.945Z,66.89
2019-06-10T20:30:37.000Z,67.35
2019-06-10T20:33:05.711Z,67.02
2019-06-10T20:35:34.200Z,66.74
2019-06-10T20:38:05.091Z,66.67
2019-06-10T20:40:35.497Z,66.64
2019-06-10T20:43:03.388Z,67.85
2019-06-10T20:45:33.167Z,67.55
2019-06-10T20:48:02.761Z,67.74
2019-06-10T20:50:32.565Z,68.36
2019-06-10T20:53:11.871Z,68.25
2019-06-10T20:55:40.685Z,67.80
2019-06-10T20:58:06.932Z,68.10
2019-06-10T21:00:40.574Z,68.32
2019-06-10T21:03:07.895Z,68.11
2019-06-10T21:05:36.677Z,69.14
2019-06-10T21:08:05.925Z,69.46
2019-06-10T21:10:36.476Z,69.19
2019-06-10T21:13:08.179Z,69.53
2019-06-10T21:15:37.435Z,70.14
2019-06-10T21:18:06.300Z,69.80
2019-06-10T21:20:34.848Z,71.21
2019-06-10T21:23:03.498Z,71.10
2019-06-10T21:25:32.643Z,70.76
2019-06-10T21:28:03.326Z,71.05
2019-06-10T21:30:41.329Z,71.48
2019-06-10T21:33:03.506Z,71.02
2019-06-10T21:35:34.276Z,71.42
2019-06-10T21:38:03.137Z,73.35
2019-06-10T21:40:33.015Z,72.50
2019-06-10T21:43:02.997Z,72.34
2019-06-10T21:45:32.542Z,73.73
2019-06-10T21:48:02.321Z,72.25
2019-06-10T21:50:33.355Z,71.90
2019-06-10T21:53:02.944Z,72.67
2019-06-10T21:55:33.187Z,73.34
2019-06-10T21:58:03.676Z,73.23
2019-06-10T22:00:52.035Z,73.40
2019-06-10T22:03:07.118Z,74.40
2019-06-10T22:05:35.576Z,73.91
2019-06-10T22:08:04.068Z,76.06
2019-06-10T22:10:33.611Z,74.34
2019-06-10T22:13:03.143Z,74.26
2019-06-10T22:15:33.388Z,74.54
2019-06-10T22:18:02.366Z,74.97
2019-06-10T22:20:32.421Z,75.84
2019-06-10T22:23:02.571Z,79.33
2019-06-10T22:25:32.833Z,76.27
2019-06-10T22:28:02.782Z,77.04
2019-06-10T22:30:32.214Z,79.30
2019-06-10T22:33:03.134Z,79.50
2019-06-10T22:35:31.156Z,78.96
2019-06-10T22:37:59.633Z,80.02
2019-06-10T22:40:28.198Z,82.12
2019-06-10T22:42:56.876Z,81.31
2019-06-10T22:45:25.623Z,82.34
2019-06-10T22:47:55.403Z,80.01
2019-06-10T22:50:24.328Z,81.27
2019-06-10T22:52:55.603Z,80.25
2019-06-10T22:55:23.030Z,80.39
2019-06-10T22:57:54.696Z,81.34
2019-06-10T23:00:22.980Z,80.41
2019-06-10T23:02:54.612Z,81.57
2019-06-10T23:05:23.314Z,83.63
2019-06-10T23:07:53.235Z,83.91
2019-06-10T23:10:22.899Z,86.28
2019-06-10T23:12:54.737Z,87.82
2019-06-10T23:15:23.475Z,86.51
2019-06-10T23:17:55.084Z,86.30
2019-06-10T23:20:22.370Z,88.19
2019-06-10T23:22:54.395Z,87.40
2019-06-10T23:25:22.146Z,90.99
2019-06-10T23:27:54.196Z,89.65
2019-06-10T23:30:22.447Z,89.30
2019-06-10T23:32:54.426Z,88.54
2019-06-10T23:35:23.019Z,88.84
2019-06-10T23:37:54.829Z,89.45
2019-06-10T23:40:23.350Z,89.53
2019-06-10T23:42:53.143Z,90.30
2019-06-10T23:45:22.352Z,88.64
2019-06-10T23:47:52.959Z,89.19
2019-06-10T23:50:22.595Z,92.70
2019-06-10T23:52:54.092Z,91.79
2019-06-10T23:55:22.736Z,93.86
2019-06-10T23:57:53.032Z,93.78
